Teddy Meyer — WDF9635 — position and weather

sailwx.info

Track history (hours):
 
Tides and Currents Weather Stations Pressure Air Temp Water Temp Dewpoint Dewpoint Depression Visibility Wind Speed Wind Dir Waves Ship Positions

Teddy Meyer

Owner: LeBeouf Bros. Towing, LLC, Houma, LA. More information available from US FCC via Universal Licensing System and Coast Guard Vessel Documentation Center.

Last reported at 2016-May-20 15:26 UTC. Time now 2016-May-29 07:46 UTC.
Position N 29°58' W 090°14'.
Warning: this ship's position is 8 days out of date.

; draft 3 m.

MMSI: 367507220.

Date/timePositionNaut miles runAvg speedWind from/ knotsBaromVisibWave heightAir tempDewpointWater temp
2016-May-20 15:26N 29°58' W 090°14'3 3.3
2016-May-20 14:30N 29°56' W 090°11'3 3.2
2016-May-20 13:33N 29°55' W 090°08'4 3.5
2016-May-20 12:33N 29°55' W 090°04'0 0.0
2016-May-20 11:33N 29°55' W 090°04'0 0.0
2016-May-20 10:33N 29°55' W 090°04'0 0.0
2016-May-20 09:33N 29°55' W 090°04'0 0.0
2016-May-20 08:33N 29°55' W 090°04'2 1.6
2016-May-20 07:33N 29°57' W 090°03'5 5.1
2016-May-20 06:33N 29°55' W 089°58'1 0.5
2016-May-20 05:32N 29°55' W 089°58'0 0.0
2016-May-20 03:33N 29°55' W 089°58'4 4.4
2016-May-20 02:33N 29°51' W 090°01'6 5.7
2016-May-20 01:30N 29°46' W 090°05'27 6.1
2016-May-19 21:10N 29°34' W 090°32'3 5.4
2016-May-19 20:33N 29°35' W 090°36'0 0.0
2016-May-19 19:33N 29°35' W 090°36'0 0.0
2016-May-19 18:33N 29°35' W 090°36'  
2016-May-16 18:33N 29°35' W 090°36'0 0.0
2016-May-16 17:33N 29°35' W 090°36'0 0.0
2016-May-16 16:33N 29°35' W 090°36'1 0.6
2016-May-16 15:33N 29°35' W 090°36'0 0.3
2016-May-16 14:33N 29°35' W 090°36'0 0.3
2016-May-16 13:33N 29°35' W 090°36'0 0.3
2016-May-16 12:33N 29°34' W 090°36'0 0.1
2016-May-16 11:33N 29°34' W 090°36'0 0.1
2016-May-16 10:33N 29°34' W 090°36'0 0.0
2016-May-16 09:33N 29°34' W 090°36'0 0.0
2016-May-16 08:33N 29°34' W 090°36'3 3.2
2016-May-16 07:33N 29°36' W 090°39'4 3.9
2016-May-16 06:33N 29°34' W 090°43'7 6.9
2016-May-16 05:31N 29°32' W 090°51'115 3.9
2016-May-15 00:16N 29°56' W 093°00'4 5.9
2016-May-14 23:33N 29°56' W 093°05'5 5.3
2016-May-14 22:34N 29°58' W 093°11'5 5.4
2016-May-14 21:33N 30°02' W 093°15'5 5.3
2016-May-14 20:33N 30°06' W 093°18'1 0.5
2016-May-14 19:34N 30°06' W 093°19'1 1.1
2016-May-14 18:33N 30°05' W 093°20'6 5.8
2016-May-14 17:34N 30°04' W 093°26'7 7.4
2016-May-14 16:33N 30°04' W 093°35'7 7.0
2016-May-14 15:34N 30°03' W 093°43'4 3.8
2016-May-14 14:30N 30°00' W 093°46'6 6.1
2016-May-14 13:32N 29°57' W 093°52'7 6.6
2016-May-14 12:32N 29°52' W 093°56'6 5.9
2016-May-14 11:34N 29°48' W 094°01'8 6.0
2016-May-14 10:16N 29°43' W 094°07'11 5.5
2016-May-14 08:16N 29°38' W 094°19'5 5.1
2016-May-14 07:20N 29°36' W 094°24'25 4.3
2016-May-14 01:31N 29°29' W 094°52'8 8.0
2016-May-14 00:32N 29°36' W 094°57'8 7.9
2016-May-13 23:33N 29°42' W 095°01'2 2.3
2016-May-13 22:33N 29°44' W 095°03'0 0.0
2016-May-13 21:33N 29°44' W 095°03'0 0.0
2016-May-13 20:34N 29°44' W 095°03'0 0.0
2016-May-13 19:33N 29°44' W 095°03'0 0.0
2016-May-13 18:34N 29°44' W 095°03'0 0.0
2016-May-13 17:33N 29°44' W 095°03'0 0.0
2016-May-13 16:33N 29°44' W 095°03'0 0.0
2016-May-13 15:33N 29°44' W 095°03'0 0.0
2016-May-13 14:33N 29°44' W 095°03'0 0.0
2016-May-12 05:33N 29°44' W 095°03'0 0.0
2016-May-12 04:33N 29°44' W 095°03'0 0.0
2016-May-12 03:33N 29°44' W 095°03'0 0.0
2016-May-12 02:33N 29°44' W 095°03'0 0.0
2016-May-12 01:33N 29°44' W 095°03'0 0.0
2016-May-12 00:33N 29°44' W 095°03'0 0.0
2016-May-11 23:33N 29°44' W 095°03'0 0.0
2016-May-11 22:34N 29°44' W 095°03'0 0.0
2016-May-11 21:34N 29°44' W 095°03'0 0.1
2016-May-11 20:31N 29°44' W 095°03'0 0.1
2016-May-11 19:33N 29°44' W 095°03'0 0.0
2016-May-11 18:33N 29°44' W 095°03'0 0.0
2016-May-11 17:34N 29°44' W 095°03'0 0.0
2016-May-11 16:33N 29°44' W 095°03'0 0.0
2016-May-11 15:33N 29°44' W 095°03'0 0.0
2016-May-11 14:33N 29°44' W 095°03'0 0.0
2016-May-11 13:34N 29°44' W 095°03'0 0.0
2016-May-11 12:32N 29°44' W 095°03'0 0.0
2016-May-11 11:33N 29°44' W 095°03'0 0.1
2016-May-11 10:33N 29°44' W 095°03'1 1.0
2016-May-11 09:32N 29°44' W 095°02'6 5.9
2016-May-11 08:33N 29°39' W 094°58'7 7.2
2016-May-11 07:33N 29°33' W 094°54'6 6.2
2016-May-11 06:32N 29°27' W 094°51'  
Track history (hours):
 
Tides and Currents Weather Stations Pressure Air Temp Water Temp Dewpoint Dewpoint Depression Visibility Wind Speed Wind Dir Waves Ship Positions

Teddy Meyer

Owner: LeBeouf Bros. Towing, LLC, Houma, LA. More information available from US FCC via Universal Licensing System and Coast Guard Vessel Documentation Center.

Last reported at 2016-May-20 15:26 UTC. Time now 2016-May-29 07:46 UTC.
Position N 29°58' W 090°14'.
Warning: this ship's position is 8 days out of date.

; draft 3 m.

MMSI: 367507220.

Date/timePositionNaut miles runAvg speedWind from/ knotsBaromVisibWave heightAir tempDewpointWater temp
2016-May-20 15:26N 29°58' W 090°14'3 3.3
2016-May-20 14:30N 29°56' W 090°11'3 3.2
2016-May-20 13:33N 29°55' W 090°08'4 3.5
2016-May-20 12:33N 29°55' W 090°04'0 0.0
2016-May-20 11:33N 29°55' W 090°04'0 0.0
2016-May-20 10:33N 29°55' W 090°04'0 0.0
2016-May-20 09:33N 29°55' W 090°04'0 0.0
2016-May-20 08:33N 29°55' W 090°04'2 1.6
2016-May-20 07:33N 29°57' W 090°03'5 5.1
2016-May-20 06:33N 29°55' W 089°58'1 0.5
2016-May-20 05:32N 29°55' W 089°58'0 0.0
2016-May-20 03:33N 29°55' W 089°58'4 4.4
2016-May-20 02:33N 29°51' W 090°01'6 5.7
2016-May-20 01:30N 29°46' W 090°05'27 6.1
2016-May-19 21:10N 29°34' W 090°32'3 5.4
2016-May-19 20:33N 29°35' W 090°36'0 0.0
2016-May-19 19:33N 29°35' W 090°36'0 0.0
2016-May-19 18:33N 29°35' W 090°36'  
2016-May-16 18:33N 29°35' W 090°36'0 0.0
2016-May-16 17:33N 29°35' W 090°36'0 0.0
2016-May-16 16:33N 29°35' W 090°36'1 0.6
2016-May-16 15:33N 29°35' W 090°36'0 0.3
2016-May-16 14:33N 29°35' W 090°36'0 0.3
2016-May-16 13:33N 29°35' W 090°36'0 0.3
2016-May-16 12:33N 29°34' W 090°36'0 0.1
2016-May-16 11:33N 29°34' W 090°36'0 0.1
2016-May-16 10:33N 29°34' W 090°36'0 0.0
2016-May-16 09:33N 29°34' W 090°36'0 0.0
2016-May-16 08:33N 29°34' W 090°36'3 3.2
2016-May-16 07:33N 29°36' W 090°39'4 3.9
2016-May-16 06:33N 29°34' W 090°43'7 6.9
2016-May-16 05:31N 29°32' W 090°51'115 3.9
2016-May-15 00:16N 29°56' W 093°00'4 5.9
2016-May-14 23:33N 29°56' W 093°05'5 5.3
2016-May-14 22:34N 29°58' W 093°11'5 5.4
2016-May-14 21:33N 30°02' W 093°15'5 5.3
2016-May-14 20:33N 30°06' W 093°18'1 0.5
2016-May-14 19:34N 30°06' W 093°19'1 1.1
2016-May-14 18:33N 30°05' W 093°20'6 5.8
2016-May-14 17:34N 30°04' W 093°26'7 7.4
2016-May-14 16:33N 30°04' W 093°35'7 7.0
2016-May-14 15:34N 30°03' W 093°43'4 3.8
2016-May-14 14:30N 30°00' W 093°46'6 6.1
2016-May-14 13:32N 29°57' W 093°52'7 6.6
2016-May-14 12:32N 29°52' W 093°56'6 5.9
2016-May-14 11:34N 29°48' W 094°01'8 6.0
2016-May-14 10:16N 29°43' W 094°07'11 5.5
2016-May-14 08:16N 29°38' W 094°19'5 5.1
2016-May-14 07:20N 29°36' W 094°24'25 4.3
2016-May-14 01:31N 29°29' W 094°52'8 8.0
2016-May-14 00:32N 29°36' W 094°57'8 7.9
2016-May-13 23:33N 29°42' W 095°01'2 2.3
2016-May-13 22:33N 29°44' W 095°03'0 0.0
2016-May-13 21:33N 29°44' W 095°03'0 0.0
2016-May-13 20:34N 29°44' W 095°03'0 0.0
2016-May-13 19:33N 29°44' W 095°03'0 0.0
2016-May-13 18:34N 29°44' W 095°03'0 0.0
2016-May-13 17:33N 29°44' W 095°03'0 0.0
2016-May-13 16:33N 29°44' W 095°03'0 0.0
2016-May-13 15:33N 29°44' W 095°03'0 0.0
2016-May-13 14:33N 29°44' W 095°03'0 0.0
2016-May-12 05:33N 29°44' W 095°03'0 0.0
2016-May-12 04:33N 29°44' W 095°03'0 0.0
2016-May-12 03:33N 29°44' W 095°03'0 0.0
2016-May-12 02:33N 29°44' W 095°03'0 0.0
2016-May-12 01:33N 29°44' W 095°03'0 0.0
2016-May-12 00:33N 29°44' W 095°03'0 0.0
2016-May-11 23:33N 29°44' W 095°03'0 0.0
2016-May-11 22:34N 29°44' W 095°03'0 0.0
2016-May-11 21:34N 29°44' W 095°03'0 0.1
2016-May-11 20:31N 29°44' W 095°03'0 0.1
2016-May-11 19:33N 29°44' W 095°03'0 0.0
2016-May-11 18:33N 29°44' W 095°03'0 0.0
2016-May-11 17:34N 29°44' W 095°03'0 0.0
2016-May-11 16:33N 29°44' W 095°03'0 0.0
2016-May-11 15:33N 29°44' W 095°03'0 0.0
2016-May-11 14:33N 29°44' W 095°03'0 0.0
2016-May-11 13:34N 29°44' W 095°03'0 0.0
2016-May-11 12:32N 29°44' W 095°03'0 0.0
2016-May-11 11:33N 29°44' W 095°03'0 0.1
2016-May-11 10:33N 29°44' W 095°03'1 1.0
2016-May-11 09:32N 29°44' W 095°02'6 5.9
2016-May-11 08:33N 29°39' W 094°58'7 7.2
2016-May-11 07:33N 29°33' W 094°54'6 6.2
2016-May-11 06:32N 29°27' W 094°51'  

Dump ship's entire track history